Home
 
Morpeth (BP) AWS
Home
Latest Observations
 
Search
 
 
Information
  • Contact
  • Copyright Notice
  • Disclaimer
  • Morpeth (Berry Park), NSW
    Automatic Weather Station
    Latitude: 32°44'SLongitude: 151°40'EElevation: 8.0m

    Last update 10:59am local on Monday 18 October 2021

    Date/Time
    EST
    Temp Dew
    Point
    Rel
    Hum
    Max
    Temp
    MaxT
    Time
    Min
    Temp
    MinT
    Time
    Wind Max Wind Gust Rain
    since 9am
    Wind Dir Speed Gust Max
    Dir
    Max Max
    Time
    °C °C % °C   °C   kts kts kts mm
    18-Oct 10:00 19.3 10.8 58 19.3 09:57 16.6 09:00 0.0
    18-Oct 09:00 16.6 10.5 67 23.7 15:26 8.2 05:12 0.0
    18-Oct 08:00 13.6 10.5 81 23.7 15:26 8.2 05:12 0.0
    18-Oct 07:00 9.4 8.4 93 23.7 15:26 8.2 05:12 0.0
    18-Oct 06:00 9.0 7.7 92 23.7 15:26 8.2 05:12 0.0
    18-Oct 05:00 9.2 7.8 91 23.7 15:26 8.7 04:12 0.0
    18-Oct 04:00 9.0 7.7 92 23.7 15:26 8.9 03:59 0.0
    18-Oct 03:00 10.0 8.3 89 23.7 15:26 9.5 02:38 0.0
    18-Oct 02:00 11.9 8.1 78 23.7 15:26 11.8 01:59 0.0
    18-Oct 01:00 13.1 8.3 72 23.7 15:26 12.0 22:59 0.0
    18-Oct 00:00 12.4 8.3 76 23.7 15:26 12.0 22:59 0.0
    17-Oct 23:00 12.1 8.3 78 23.7 15:26 12.0 22:59 0.0
    17-Oct 22:00 12.8 8.3 74 23.7 15:26 12.7 21:59 0.0
    17-Oct 21:00 14.0 9.0 72 23.7 15:26 13.9 21:00 0.0
    17-Oct 20:00 14.9 9.2 69 23.7 15:26 14.8 19:57 0.0
    17-Oct 19:00 17.2 9.9 62 23.7 15:26 16.8 09:03 0.0
    17-Oct 18:00 20.3 8.5 47 23.7 15:26 16.8 09:03 0.0
    17-Oct 17:00 21.2 8.4 44 23.7 15:26 16.8 09:03 0.0
    17-Oct 16:00 22.9 8.1 39 23.7 15:26 16.8 09:03 0.0
    17-Oct 15:00 23.0 5.1 32 23.6 14:35 16.8 09:03 0.0
    17-Oct 14:00 22.9 6.4 35 23.0 13:59 16.8 09:03 0.0
    17-Oct 13:00 22.0 5.5 34 22.2 12:46 16.8 09:03 0.0
    17-Oct 12:00 21.4 5.5 36 21.4 11:59 16.8 09:03 0.0
    17-Oct 11:00 20.1 8.9 49 20.1 10:52 16.8 09:03 0.0
    17-Oct 10:00 18.8 8.2 50 19.0 09:53 16.8 09:03 0.0
    17-Oct 09:00 16.9 7.6 54 21.2 15:07 7.0 06:20 0.0
    17-Oct 08:00 14.5 8.0 65 21.2 15:07 7.0 06:20 0.0
    17-Oct 07:00 9.5 7.2 86 21.2 15:07 7.0 06:20 0.0
    17-Oct 06:00 8.4 5.4 81 21.2 15:07 8.3 06:00 0.0
    17-Oct 05:00 11.7 6.6 71 21.2 15:07 11.3 04:56 0.0
    17-Oct 04:00 12.1 6.7 70 21.2 15:07 11.8 03:51 0.0
    17-Oct 03:00 13.0 6.8 66 21.2 15:07 12.7 02:53 0.0
    17-Oct 02:00 13.4 6.8 64 21.2 15:07 13.3 01:57 0.0
    17-Oct 01:00 14.4 6.9 61 21.2 15:07 14.3 00:49 0.0
    17-Oct 00:00 15.0 6.7 57 21.2 15:07 14.5 21:56 0.0
    16-Oct 23:00 15.1 6.5 57 21.2 15:07 14.5 22:00 0.0
    16-Oct 22:00 14.6 6.8 59 21.2 15:07 14.5 21:56 0.0
    16-Oct 21:00 14.9 6.8 59 21.2 15:07 14.8 20:58 0.0
    16-Oct 20:00 16.3 6.3 52 21.2 15:07 15.5 19:37 0.0
    16-Oct 19:00 17.8 4.8 42 21.2 15:07 15.7 09:01 0.0
    16-Oct 18:00 19.4 4.0 36 21.2 15:07 15.7 09:01 0.0
    16-Oct 17:00 20.4 5.8 39 21.2 15:07 15.7 09:01 0.0
    16-Oct 16:00 20.4 7.6 44 21.2 15:07 15.7 09:01 0.0
    16-Oct 15:00 20.7 7.8 44 21.1 14:21 15.7 09:01 0.0
    16-Oct 14:00 20.7 7.5 43 20.7 13:52 15.7 09:01 0.0
    16-Oct 13:00 19.9 6.8 43 20.1 12:47 15.7 09:01 0.0
    16-Oct 12:00 19.6 7.1 44 19.8 11:52 15.7 09:01 0.0
    16-Oct 11:00 18.4 7.0 48 18.7 10:52 15.7 09:01 0.0
    16-Oct 10:00 17.7 6.7 48 17.7 09:59 15.7 09:01 0.0
    16-Oct 09:00 15.8 6.8 55 23.0 14:04 11.7 01:59 0.4
    16-Oct 08:00 13.4 7.3 67 23.0 14:04 11.7 01:59 0.2
    16-Oct 07:00 12.8 7.0 68 23.0 14:04 11.7 01:59 0.2
    16-Oct 06:00 12.4 7.0 70 23.0 14:04 11.7 01:59 0.2
    16-Oct 05:00 12.1 7.0 71 23.0 14:04 11.7 01:59 0.2
    16-Oct 04:00 12.2 7.2 72 23.0 14:04 11.7 01:59 0.2
    16-Oct 03:00 12.2 7.4 73 23.0 14:04 11.7 02:06 0.2
    16-Oct 02:00 11.8 7.1 73 23.0 14:04 11.7 01:59 0.2
    16-Oct 01:00 12.3 6.7 69 23.0 14:04 11.9 00:48 0.2
    16-Oct 00:00 12.4 6.9 69 23.0 14:04 12.2 22:21 0.2
    15-Oct 23:00 12.5 7.0 69 23.0 14:04 12.2 22:21 0.2
    15-Oct 22:00 12.7 7.4 70 23.0 14:04 12.4 21:36 0.2
    15-Oct 21:00 12.8 8.0 72 23.0 14:04 12.7 20:55 0.2
    15-Oct 20:00 13.7 8.2 70 23.0 14:04 13.6 19:54 0.2
    15-Oct 19:00 14.4 7.9 65 23.0 14:04 14.1 18:46 0.2
    15-Oct 18:00 17.7 6.7 49 23.0 14:04 17.1 09:00 0.0
    15-Oct 17:00 20.3 6.2 40 23.0 14:04 17.1 09:00 0.0
    15-Oct 16:00 21.3 6.6 39 23.0 14:04 17.1 09:00 0.0
    15-Oct 15:00 22.3 7.4 38 23.0 14:04 17.1 09:00 0.0
    15-Oct 14:00 22.3 5.8 35 22.5 13:40 17.1 09:00 0.0
    15-Oct 13:00 20.4 8.4 46 21.9 11:59 17.1 09:00 0.0
    15-Oct 12:00 21.8 4.0 31 21.9 11:59 17.1 09:00 0.0
    15-Oct 11:00 19.7 10.0 54 20.2 10:14 17.1 09:00 0.0

    Monday, 18 October 2021
    © 2021 Tim Grugeon